Time;durP1;ratioP1;P1;durP2;ratioP2;P2;SDS_P1;SDS_P2;PMS_P1;PMS_P2;Temp;Humidity;BMP_temperature;BMP_pressure;BME280_temperature;BME280_humidity;BME280_pressure;Samples;Min_cycle;Max_cycle;Signal;HPM_P1;HPM_P2
2023/06/15 00:02:26;;;;;;;10.13;4.20;;;;;;;16.25;100.00;101747.94;5205850;28;20029;-69
2023/06/15 00:04:56;;;;;;;5.43;4.00;;;;;;;16.22;100.00;101745.59;5205813;28;20028;-69
2023/06/15 00:07:27;;;;;;;6.93;3.67;;;;;;;16.19;100.00;101746.78;5205111;28;20045;-69
2023/06/15 00:09:57;;;;;;;7.60;3.97;;;;;;;16.19;100.00;101748.66;5205778;28;20112;-69
2023/06/15 00:12:28;;;;;;;10.80;3.60;;;;;;;16.16;100.00;101747.13;5205598;28;20487;-69
2023/06/15 00:14:58;;;;;;;8.25;3.67;;;;;;;16.16;100.00;101749.00;5205789;28;20021;-69
2023/06/15 00:17:30;;;;;;;7.95;3.80;;;;;;;16.14;100.00;101745.66;5204630;28;20094;-69
2023/06/15 00:20:00;;;;;;;4.97;3.63;;;;;;;16.15;100.00;101750.03;5205314;28;20631;-69
2023/06/15 00:22:31;;;;;;;5.93;4.10;;;;;;;16.12;100.00;101753.13;5205782;28;20044;-69
2023/06/15 00:25:01;;;;;;;12.15;4.38;;;;;;;16.07;100.00;101753.66;5205307;28;20029;-69
2023/06/15 00:27:35;;;;;;;10.95;4.07;;;;;;;16.03;100.00;101752.34;5204933;28;20025;-69
2023/06/15 00:30:08;;;;;;;7.78;3.78;;;;;;;15.97;100.00;101751.19;5204268;28;20451;-69
2023/06/15 00:32:39;;;;;;;7.05;3.53;;;;;;;15.92;100.00;101750.88;5205299;28;20079;-69
2023/06/15 00:35:10;;;;;;;13.50;4.22;;;;;;;15.88;100.00;101756.84;5205205;28;20044;-70
2023/06/15 00:37:40;;;;;;;10.65;4.20;;;;;;;15.84;100.00;101752.81;5204806;28;20231;-70
2023/06/15 00:40:11;;;;;;;13.05;4.40;;;;;;;15.81;100.00;101753.97;5205414;28;20108;-70
2023/06/15 00:42:42;;;;;;;10.20;4.32;;;;;;;15.78;100.00;101755.19;5205047;28;20083;-70
2023/06/15 00:45:12;;;;;;;7.00;3.88;;;;;;;15.74;100.00;101750.31;5204937;28;20049;-70
2023/06/15 00:47:43;;;;;;;12.77;4.82;;;;;;;15.70;100.00;101755.25;5202646;28;20481;-69
2023/06/15 00:50:18;;;;;;;6.18;4.18;;;;;;;15.66;100.00;101759.34;5204857;28;20029;-69
2023/06/15 00:52:51;;;;;;;13.03;4.70;;;;;;;15.61;100.00;101756.25;5204989;28;20071;-69
2023/06/15 00:55:22;;;;;;;6.93;4.28;;;;;;;15.52;100.00;101749.25;5204569;28;20076;-69
2023/06/15 00:57:54;;;;;;;7.85;4.22;;;;;;;15.43;100.00;101753.00;5204276;28;20026;-69
2023/06/15 01:00:24;;;;;;;8.27;4.53;;;;;;;15.32;100.00;101754.22;5205074;28;20021;-69
2023/06/15 01:02:56;;;;;;;10.55;4.80;;;;;;;15.25;100.00;101751.38;5205170;28;20017;-69
2023/06/15 01:05:26;;;;;;;9.50;4.80;;;;;;;15.22;100.00;101753.59;5204631;28;20078;-69
2023/06/15 01:08:01;;;;;;;8.90;4.35;;;;;;;15.17;100.00;101759.53;5204106;28;20108;-69
2023/06/15 01:10:32;;;;;;;;;;;;;;;15.18;100.00;101763.06;5204942;28;20032;-69
2023/06/15 01:13:10;;;;;;;6.57;4.03;;;;;;;15.16;100.00;101757.84;5204810;28;20306;-69
2023/06/15 01:15:40;;;;;;;9.52;4.95;;;;;;;15.16;100.00;101757.84;5203955;28;20132;-69
2023/06/15 01:18:19;;;;;;;8.35;4.65;;;;;;;15.08;100.00;101757.00;5204014;28;20025;-69
2023/06/15 01:20:53;;;;;;;7.63;4.05;;;;;;;15.01;100.00;101748.78;5204439;28;20036;-69
2023/06/15 01:23:34;;;;;;;9.18;4.85;;;;;;;14.95;100.00;101755.69;5204415;28;20025;-69
2023/06/15 01:26:06;;;;;;;10.77;4.68;;;;;;;14.92;100.00;101760.59;5203969;28;20052;-69
2023/06/15 01:28:40;;;;;;;7.95;4.72;;;;;;;14.90;100.00;101759.91;5203901;28;20021;-69
2023/06/15 01:31:12;;;;;;;6.75;4.47;;;;;;;14.87;100.00;101758.41;5204415;28;20030;-69
2023/06/15 01:34:00;;;;;;;11.10;4.70;;;;;;;14.83;100.00;101762.47;5204267;28;20021;-69
2023/06/15 01:36:31;;;;;;;8.85;4.68;;;;;;;14.80;100.00;101757.41;5203550;28;20083;-69
2023/06/15 01:39:02;;;;;;;10.90;5.05;;;;;;;14.79;100.00;101755.72;5203852;28;20103;-69
2023/06/15 01:41:35;;;;;;;7.38;5.40;;;;;;;14.78;100.00;101756.75;5203709;28;20036;-69
2023/06/15 01:44:06;;;;;;;8.25;5.03;;;;;;;14.77;100.00;101757.78;5204152;28;20433;-69
2023/06/15 01:46:37;;;;;;;7.07;5.40;;;;;;;14.76;100.00;101756.94;5203315;28;20100;-69
2023/06/15 01:49:08;;;;;;;11.20;4.85;;;;;;;14.76;100.00;101761.50;5203677;28;20033;-69
2023/06/15 01:51:38;;;;;;;9.18;5.55;;;;;;;14.75;100.00;101757.91;5203537;28;20032;-69
2023/06/15 01:54:09;;;;;;;11.25;4.88;;;;;;;14.75;100.00;101762.47;5202305;28;20021;-69
2023/06/15 01:56:40;;;;;;;8.55;4.65;;;;;;;14.76;100.00;101756.94;5202987;28;20387;-69
2023/06/15 01:59:10;;;;;;;10.00;5.05;;;;;;;14.81;100.00;101759.13;5203529;28;20052;-69
2023/06/15 02:01:41;;;;;;;8.23;4.65;;;;;;;14.85;100.00;101757.72;5203578;28;20475;-69
2023/06/15 02:04:12;;;;;;;8.77;5.47;;;;;;;14.90;100.00;101758.06;5202987;28;20029;-69
2023/06/15 02:06:43;;;;;;;7.70;4.90;;;;;;;14.92;100.00;101761.44;5202751;28;20662;-69
2023/06/15 02:09:14;;;;;;;14.10;5.53;;;;;;;14.94;100.00;101763.97;5203379;28;20032;-69
2023/06/15 02:11:45;;;;;;;10.57;5.68;;;;;;;14.94;100.00;101763.97;5203049;28;20033;-69
2023/06/15 02:14:17;;;;;;;9.55;5.10;;;;;;;14.93;100.00;101762.28;5203069;28;20021;-69
2023/06/15 02:16:49;;;;;;;7.88;4.85;;;;;;;14.92;100.00;101766.84;5201551;28;20038;-69
2023/06/15 02:19:22;;;;;;;10.82;5.10;;;;;;;14.89;100.00;101766.34;5203148;28;20395;-69
2023/06/15 02:21:52;;;;;;;10.73;4.75;;;;;;;14.87;100.00;101777.34;5202944;28;20037;-69
2023/06/15 02:24:23;;;;;;;7.90;4.95;;;;;;;14.88;100.00;101770.06;5203038;28;20096;-69
2023/06/15 02:26:53;;;;;;;8.43;5.38;;;;;;;14.87;100.00;101771.09;5201873;28;20029;-69
2023/06/15 02:29:24;;;;;;;12.20;5.65;;;;;;;14.97;100.00;101761.78;5203091;28;20087;-69
2023/06/15 02:31:55;;;;;;;9.98;5.45;;;;;;;14.99;100.00;101772.41;5202832;28;20031;-69
2023/06/15 02:34:25;;;;;;;8.27;5.43;;;;;;;14.99;100.00;101769.69;5203108;28;20097;-69
2023/06/15 02:36:56;;;;;;;11.43;5.78;;;;;;;14.95;100.00;101771.88;5202245;28;20025;-69
2023/06/15 02:39:27;;;;;;;7.28;5.60;;;;;;;14.96;100.00;101773.59;5202753;28;20097;-69
2023/06/15 02:41:57;;;;;;;12.20;6.13;;;;;;;14.94;100.00;101775.63;5202699;28;20025;-69
2023/06/15 02:44:28;;;;;;;10.45;6.00;;;;;;;14.92;100.00;101782.22;5202526;28;20092;-69
2023/06/15 02:46:58;;;;;;;11.20;6.72;;;;;;;14.88;100.00;101783.56;5202148;28;20029;-69
2023/06/15 02:49:29;;;;;;;8.43;5.75;;;;;;;14.75;100.00;101776.00;5202669;28;20052;-69
2023/06/15 02:51:59;;;;;;;9.82;5.80;;;;;;;14.62;100.00;101786.47;5202565;28;20083;-69
2023/06/15 02:54:30;;;;;;;10.32;5.43;;;;;;;14.42;100.00;101777.84;5205182;28;20105;-69
2023/06/15 02:57:01;;;;;;;15.65;6.68;;;;;;;14.28;100.00;101778.53;5207082;28;20785;-69
2023/06/15 02:59:32;;;;;;;13.88;6.35;;;;;;;14.16;100.00;101778.00;5207380;28;20442;-69
2023/06/15 03:02:04;;;;;;;15.75;6.22;;;;;;;14.06;100.00;101772.78;5207770;28;20041;-69
2023/06/15 03:04:44;;;;;;;12.20;6.85;;;;;;;14.03;100.00;101772.25;5207510;28;20026;-69
2023/06/15 03:07:16;;;;;;;8.85;5.93;;;;;;;13.96;100.00;101780.19;5206915;28;20075;-69
2023/06/15 03:09:47;;;;;;;13.00;6.60;;;;;;;13.95;100.00;101773.91;5207359;28;20044;-69
2023/06/15 03:12:19;;;;;;;11.05;6.50;;;;;;;13.95;100.00;101773.06;5206406;28;20091;-69
2023/06/15 03:14:50;;;;;;;11.05;7.05;;;;;;;13.94;100.00;101777.63;5206801;28;20025;-69
2023/06/15 03:17:22;;;;;;;12.32;6.20;;;;;;;13.89;100.00;101785.38;5205874;28;20059;-70
2023/06/15 03:19:52;;;;;;;10.35;5.75;;;;;;;13.81;100.00;101781.81;5207401;28;20030;-69
2023/06/15 03:22:24;;;;;;;9.73;6.80;;;;;;;13.73;100.00;101788.03;5206489;28;20116;-69
2023/06/15 03:24:55;;;;;;;8.45;6.80;;;;;;;13.62;100.00;101786.47;5206175;28;20022;-69
2023/06/15 03:27:26;;;;;;;13.10;6.60;;;;;;;13.49;100.00;101791.47;5205313;28;20037;-69
2023/06/15 03:29:57;;;;;;;9.32;6.10;;;;;;;13.33;100.00;101781.47;5206163;28;20029;-68
2023/06/15 03:32:28;;;;;;;10.13;6.25;;;;;;;13.20;100.00;101795.38;5206179;28;20025;-69
2023/06/15 03:34:58;;;;;;;12.02;7.28;;;;;;;13.16;100.00;101795.84;5206423;28;20025;-69
2023/06/15 03:37:29;;;;;;;11.93;6.88;;;;;;;13.12;100.00;101803.41;5206696;28;20116;-69
2023/06/15 03:39:59;;;;;;;12.70;6.95;;;;;;;13.12;100.00;101791.78;5205781;28;20030;-69
2023/06/15 03:42:30;;;;;;;11.57;6.50;;;;;;;13.13;100.00;101805.09;5205992;28;20091;-69
2023/06/15 03:45:00;;;;;;;9.90;6.57;;;;;;;13.16;100.00;101804.78;5205870;28;20104;-69
2023/06/15 03:47:32;;;;;;;10.98;6.70;;;;;;;13.18;100.00;101799.22;5205351;28;20432;-69
2023/06/15 03:50:03;;;;;;;9.82;6.72;;;;;;;13.16;100.00;101799.38;5205832;28;20394;-69
2023/06/15 03:52:33;;;;;;;12.07;6.55;;;;;;;13.17;100.00;101798.38;5205286;28;20083;-69
2023/06/15 03:55:05;;;;;;;12.80;6.30;;;;;;;13.16;100.00;101802.09;5205915;28;20510;-69
2023/06/15 03:57:36;;;;;;;10.45;7.13;;;;;;;13.17;100.00;101808.31;5204982;28;20376;-69
2023/06/15 04:00:07;;;;;;;10.40;7.15;;;;;;;13.13;100.00;101799.69;5205822;28;20045;-69
2023/06/15 04:02:37;;;;;;;12.07;7.55;;;;;;;13.09;100.00;101803.72;5205520;28;20037;-69
2023/06/15 04:05:09;;;;;;;13.68;7.88;;;;;;;13.07;100.00;101805.72;5205465;28;20043;-69
2023/06/15 04:07:40;;;;;;;8.68;6.78;;;;;;;13.05;100.00;101806.88;5204919;28;20033;-69
2023/06/15 04:10:12;;;;;;;19.52;8.13;;;;;;;13.05;100.00;101813.13;5205777;28;20024;-70
2023/06/15 04:12:42;;;;;;;8.82;7.28;;;;;;;13.06;100.00;101814.81;5205218;28;20151;-69
2023/06/15 04:15:13;;;;;;;14.20;7.70;;;;;;;13.07;100.00;101819.19;5205348;28;20014;-69
2023/06/15 04:17:44;;;;;;;12.48;7.88;;;;;;;13.12;100.00;101816.03;5204569;28;20056;-69
2023/06/15 04:20:15;;;;;;;13.75;8.02;;;;;;;13.14;100.00;101822.94;5198073;28;20017;-69
2023/06/15 04:22:46;;;;;;;12.32;7.90;;;;;;;13.19;100.00;101825.16;5200369;28;20029;-69
2023/06/15 04:25:17;;;;;;;10.32;7.43;;;;;;;13.25;100.00;101829.09;5204933;28;20067;-69
2023/06/15 04:27:49;;;;;;;10.80;7.13;;;;;;;13.31;100.00;101834.69;5204489;28;20108;-69
2023/06/15 04:30:24;;;;;;;18.17;7.80;;;;;;;13.39;100.00;101836.59;5205416;28;20022;-69
2023/06/15 04:35:45;;;;;;;15.82;8.73;;;;;;;13.60;100.00;101825.38;5205083;28;19944;-70
2023/06/15 04:38:15;;;;;;;22.70;9.25;;;;;;;13.74;100.00;101828.31;5204754;28;20382;-70
2023/06/15 04:40:46;;;;;;;16.65;8.80;;;;;;;13.91;100.00;101833.78;5205085;28;20026;-69
2023/06/15 04:43:16;;;;;;;18.75;8.45;;;;;;;14.05;100.00;101838.50;5205059;28;20437;-69
2023/06/15 04:45:47;;;;;;;23.40;9.38;;;;;;;14.18;100.00;101836.19;5204799;28;20017;-69
2023/06/15 04:48:19;;;;;;;20.23;8.95;;;;;;;14.29;100.00;101842.28;5204771;28;20053;-69
2023/06/15 04:50:50;;;;;;;19.80;9.75;;;;;;;14.39;100.00;101840.25;5204833;28;20100;-70
2023/06/15 04:53:20;;;;;;;17.95;9.70;;;;;;;14.50;100.00;101843.50;5205149;28;20108;-70
2023/06/15 04:55:51;;;;;;;19.65;10.52;;;;;;;14.65;100.00;101843.69;5204292;28;20021;-70
2023/06/15 04:58:21;;;;;;;15.18;9.25;;;;;;;14.77;100.00;101846.91;5204824;28;20025;-70
2023/06/15 05:00:52;;;;;;;19.92;10.38;;;;;;;14.91;100.00;101850.75;5204911;28;20029;-70
2023/06/15 05:03:23;;;;;;;18.85;10.75;;;;;;;15.07;100.00;101858.03;5204668;28;20026;-70
2023/06/15 05:05:53;;;;;;;21.30;10.35;;;;;;;15.22;100.00;101859.84;5204130;28;20017;-70
2023/06/15 05:08:24;;;;;;;22.88;11.05;;;;;;;15.34;100.00;101854.06;5204612;28;20633;-69
2023/06/15 05:10:55;;;;;;;17.10;10.18;;;;;;;15.46;100.00;101858.09;5204372;28;20356;-69
2023/06/15 05:13:26;;;;;;;22.35;9.63;;;;;;;15.60;100.00;101861.94;5204537;28;20107;-70
2023/06/15 05:15:56;;;;;;;13.35;9.95;;;;;;;15.70;100.00;101863.44;5203263;28;20135;-70
2023/06/15 05:18:27;;;;;;;22.30;10.50;;;;;;;15.84;100.00;101864.56;5203850;28;20356;-69
2023/06/15 05:20:57;;;;;;;18.23;11.15;;;;;;;15.97;100.00;101864.84;5204517;28;20026;-70
2023/06/15 05:23:28;;;;;;;26.23;10.55;;;;;;;16.09;100.00;101869.88;5204027;28;20022;-69
2023/06/15 05:25:59;;;;;;;16.13;10.35;;;;;;;16.21;100.00;101863.00;5203407;28;20264;-70
2023/06/15 05:28:29;;;;;;;19.60;10.13;;;;;;;16.31;100.00;101872.63;5203742;28;20395;-70
2023/06/15 05:31:02;;;;;;;18.80;10.68;;;;;;;16.45;100.00;101865.56;5204222;28;20036;-70
2023/06/15 05:33:33;;;;;;;20.60;10.50;;;;;;;16.57;100.00;101866.84;5186064;28;20391;-70
2023/06/15 05:36:04;;;;;;;27.02;11.20;;;;;;;16.70;100.00;101868.09;5195485;28;20475;-69
2023/06/15 05:38:34;;;;;;;20.13;11.20;;;;;;;16.82;100.00;101867.53;5201927;28;20036;-70
2023/06/15 05:41:05;;;;;;;20.55;10.45;;;;;;;16.98;100.00;101873.81;5202699;28;20033;-70
2023/06/15 05:43:35;;;;;;;22.30;9.95;;;;;;;17.12;100.00;101874.84;5188909;28;20104;-70
2023/06/15 05:46:06;;;;;;;16.92;10.10;;;;;;;17.26;100.00;101876.75;5200437;28;20118;-70
2023/06/15 05:48:36;;;;;;;22.85;10.82;;;;;;;17.42;100.00;101870.31;5202552;28;20040;-70
2023/06/15 05:51:07;;;;;;;21.05;10.27;;;;;;;17.58;100.00;101884.56;5203219;28;20017;-70
2023/06/15 05:53:37;;;;;;;16.27;10.18;;;;;;;17.75;100.00;101874.38;5203345;28;20048;-70
2023/06/15 05:56:08;;;;;;;15.27;10.00;;;;;;;17.93;100.00;101884.00;5202617;28;20021;-70
2023/06/15 05:58:38;;;;;;;21.98;10.23;;;;;;;18.22;100.00;101881.19;5203312;28;20025;-70
2023/06/15 06:01:09;;;;;;;15.95;10.00;;;;;;;18.70;100.00;101875.25;5203263;28;20033;-70
2023/06/15 06:03:40;;;;;;;20.35;9.65;;;;;;;19.52;100.00;101874.59;5202931;28;20087;-70
2023/06/15 06:06:10;;;;;;;17.08;9.05;;;;;;;20.48;100.00;101880.91;5201675;28;20111;-70
2023/06/15 06:08:41;;;;;;;12.65;8.98;;;;;;;21.50;100.00;101882.41;5203134;28;20056;-70
2023/06/15 06:11:11;;;;;;;14.30;8.40;;;;;;;22.34;100.00;101873.28;5203648;28;20079;-70
2023/06/15 06:13:42;;;;;;;17.70;8.20;;;;;;;23.04;100.00;101875.06;5203084;28;20029;-70
2023/06/15 06:16:12;;;;;;;14.65;8.23;;;;;;;23.56;100.00;101878.38;5202418;28;20033;-71
2023/06/15 06:18:43;;;;;;;13.98;8.27;;;;;;;23.88;100.00;101881.81;5202908;28;20028;-70
2023/06/15 06:21:13;;;;;;;14.68;8.18;;;;;;;24.20;100.00;101883.28;5203585;28;20394;-71
2023/06/15 06:23:44;;;;;;;13.30;7.60;;;;;;;24.59;100.00;101877.47;5202690;28;20027;-71
2023/06/15 06:26:16;;;;;;;14.52;8.02;;;;;;;24.98;100.00;101879.56;5202626;28;20116;-71
2023/06/15 06:28:48;;;;;;;11.30;7.63;;;;;;;25.43;100.00;101881.75;5201670;28;20026;-71
2023/06/15 06:31:18;;;;;;;10.73;6.85;;;;;;;25.74;100.00;101883.25;5203418;28;20033;-71
2023/06/15 06:33:49;;;;;;;12.70;7.72;;;;;;;26.01;100.00;101886.34;5203157;28;20030;-71
2023/06/15 06:36:19;;;;;;;13.48;6.95;;;;;;;26.23;100.00;101888.41;5202527;28;20029;-71
2023/06/15 06:38:50;;;;;;;12.25;6.65;;;;;;;26.47;100.00;101883.66;5202947;28;20025;-71
2023/06/15 06:41:21;;;;;;;11.70;5.72;;;;;;;26.71;100.00;101884.34;5202747;28;20025;-71
2023/06/15 06:43:52;;;;;;;12.55;6.05;;;;;;;26.84;99.27;101886.78;5203057;28;20036;-71
2023/06/15 06:46:22;;;;;;;10.65;6.35;;;;;;;26.87;100.00;101885.47;5202470;28;20029;-71
2023/06/15 06:48:54;;;;;;;15.75;6.50;;;;;;;26.60;100.00;101883.31;5202890;28;20036;-71
2023/06/15 06:51:24;;;;;;;10.02;6.22;;;;;;;26.83;100.00;101874.94;5202917;28;20099;-71
2023/06/15 06:53:55;;;;;;;11.73;5.82;;;;;;;27.02;91.56;101883.78;5202710;28;20028;-72
2023/06/15 06:56:26;;;;;;;7.97;4.43;;;;;;;27.30;90.02;101885.59;5202300;28;20032;-71
2023/06/15 06:58:56;;;;;;;8.48;4.35;;;;;;;27.40;86.47;101881.31;5202609;28;20025;-71
2023/06/15 07:01:27;;;;;;;14.80;4.50;;;;;;;27.63;94.37;101886.63;5203052;28;20029;-71
2023/06/15 07:03:57;;;;;;;9.30;4.18;;;;;;;27.78;87.22;101881.34;5202627;28;20100;-71
2023/06/15 07:06:28;;;;;;;17.70;4.85;;;;;;;28.02;88.73;101892.94;5201218;28;20033;-71
2023/06/15 07:08:58;;;;;;;10.07;4.38;;;;;;;28.23;79.93;101890.41;5202664;28;20029;-71
2023/06/15 07:11:29;;;;;;;11.93;4.82;;;;;;;28.31;80.27;101888.00;5202977;28;20052;-71
2023/06/15 07:14:02;;;;;;;8.45;4.07;;;;;;;28.42;74.58;101897.28;5202660;28;20056;-71
2023/06/15 07:16:32;;;;;;;5.85;3.47;;;;;;;28.55;80.37;101901.53;5201861;28;20040;-72
2023/06/15 07:19:03;;;;;;;7.28;3.97;;;;;;;28.73;74.75;101897.56;5202542;28;20053;-72
2023/06/15 07:21:33;;;;;;;10.13;3.85;;;;;;;28.98;82.18;101896.97;5202676;28;20025;-72
2023/06/15 07:24:04;;;;;;;8.35;3.63;;;;;;;29.22;70.18;101898.25;5202347;28;20109;-72
2023/06/15 07:26:35;;;;;;;5.50;3.83;;;;;;;29.29;71.45;101898.03;5202066;28;20403;-72
2023/06/15 07:29:06;;;;;;;9.15;3.45;;;;;;;29.43;66.61;101893.69;5202543;28;20021;-72
2023/06/15 07:31:36;;;;;;;5.85;3.42;;;;;;;29.50;68.47;101897.03;5202776;28;20009;-71
2023/06/15 07:34:07;;;;;;;9.38;3.35;;;;;;;29.53;65.96;101890.16;5202716;28;20172;-71
2023/06/15 07:36:37;;;;;;;5.97;2.92;;;;;;;29.70;76.62;101892.75;5201860;28;20112;-72
2023/06/15 07:39:08;;;;;;;5.03;3.72;;;;;;;29.85;73.14;101896.41;5202508;28;20033;-72
2023/06/15 07:41:39;;;;;;;8.38;3.28;;;;;;;30.09;58.26;101896.78;5205749;28;20036;-71
2023/06/15 07:44:12;;;;;;;4.03;2.85;;;;;;;30.27;64.90;101897.41;5206133;28;20022;-72
2023/06/15 07:46:42;;;;;;;5.00;2.92;;;;;;;30.29;54.17;101904.34;5205475;28;20450;-72
2023/06/15 07:49:13;;;;;;;7.75;3.05;;;;;;;30.39;57.82;101900.75;5205945;28;20108;-72
2023/06/15 07:51:45;;;;;;;3.10;2.72;;;;;;;30.57;57.52;101902.16;5206389;28;20053;-72
2023/06/15 07:54:15;;;;;;;7.32;3.13;;;;;;;30.61;56.34;101903.28;5205756;28;20032;-72
2023/06/15 07:56:46;;;;;;;4.43;3.00;;;;;;;30.74;54.09;101897.22;5205499;28;20083;-72
2023/06/15 07:59:16;;;;;;;5.28;3.17;;;;;;;30.95;48.99;101909.13;5205891;28;20032;-72
2023/06/15 08:01:47;;;;;;;7.65;3.33;;;;;;;30.82;47.36;101909.69;5205907;28;20663;-72
2023/06/15 08:04:17;;;;;;;7.95;3.10;;;;;;;30.87;45.10;101904.97;5205729;28;20029;-72
2023/06/15 08:06:48;;;;;;;6.20;3.10;;;;;;;30.85;52.96;101911.91;5205051;28;20133;-72
2023/06/15 08:09:18;;;;;;;8.27;2.97;;;;;;;31.04;46.70;101901.94;5205745;28;20025;-72
2023/06/15 08:11:50;;;;;;;8.52;3.28;;;;;;;31.06;45.82;101912.72;5205913;28;20390;-72
2023/06/15 08:14:20;;;;;;;8.20;2.97;;;;;;;30.96;43.33;101916.34;5205605;28;20050;-72
2023/06/15 08:16:51;;;;;;;5.45;2.70;;;;;;;30.89;47.26;101911.09;5204646;28;20104;-72
2023/06/15 08:19:21;;;;;;;6.90;2.80;;;;;;;30.88;45.71;101901.13;5205476;28;20021;-72
2023/06/15 08:21:52;;;;;;;5.32;2.80;;;;;;;31.02;47.26;101897.75;5205493;28;20040;-72
2023/06/15 08:24:22;;;;;;;8.95;3.50;;;;;;;30.82;42.52;101901.38;5205377;28;20386;-72
2023/06/15 08:26:53;;;;;;;6.28;3.03;;;;;;;30.64;43.43;101902.72;5204763;28;20064;-72
2023/06/15 08:29:24;;;;;;;6.40;2.95;;;;;;;30.89;49.11;101894.47;5205196;28;20040;-72
2023/06/15 08:31:54;;;;;;;6.22;2.88;;;;;;;31.04;41.56;101909.41;5205414;28;20394;-72
2023/06/15 08:34:25;;;;;;;4.80;2.90;;;;;;;30.98;41.78;101900.28;5205355;28;20478;-72
2023/06/15 08:36:56;;;;;;;5.65;2.92;;;;;;;30.81;38.77;101905.25;5204516;28;20053;-72
2023/06/15 08:39:26;;;;;;;9.27;3.78;;;;;;;30.58;45.34;101899.13;5205260;28;20088;-72
2023/06/15 08:41:57;;;;;;;5.28;3.00;;;;;;;30.46;40.55;101897.72;5203635;28;20108;-72
2023/06/15 08:44:29;;;;;;;7.88;3.17;;;;;;;30.27;41.54;101902.94;5204808;28;20021;-72
2023/06/15 08:47:02;;;;;;;5.10;2.78;;;;;;;30.42;42.70;101898.28;5204461;28;20051;-72
2023/06/15 08:49:32;;;;;;;7.57;3.20;;;;;;;30.64;43.58;101902.72;5204687;28;20109;-72
2023/06/15 08:52:04;;;;;;;5.53;3.00;;;;;;;30.74;41.13;101893.63;5204197;28;20033;-72
2023/06/15 08:54:35;;;;;;;9.15;3.08;;;;;;;30.91;41.46;101902.47;5203215;28;20036;-72
2023/06/15 08:57:06;;;;;;;10.23;3.28;;;;;;;30.93;40.12;101906.66;5204469;28;20387;-72
2023/06/15 08:59:36;;;;;;;7.78;3.05;;;;;;;30.84;39.78;101894.47;5203677;28;20071;-72
2023/06/15 09:02:14;;;;;;;7.13;2.97;;;;;;;31.06;42.92;101891.38;5204926;28;20029;-72
2023/06/15 09:04:45;;;;;;;8.57;3.90;;;;;;;31.02;39.61;101889.44;5204311;28;20021;-71
2023/06/15 09:07:15;;;;;;;11.55;3.03;;;;;;;31.09;40.30;101884.47;5203947;28;20036;-72
2023/06/15 09:10:23;;;;;;;9.48;2.90;;;;;;;30.98;41.97;101875.34;5204672;28;20117;-72
2023/06/15 09:12:55;;;;;;;8.35;3.30;;;;;;;30.99;37.24;101884.50;5204522;28;20029;-71
2023/06/15 09:15:27;;;;;;;5.20;3.30;;;;;;;30.77;36.83;101879.22;5204042;28;20064;-72
2023/06/15 09:18:00;;;;;;;5.28;3.30;;;;;;;30.88;41.26;101892.81;5203950;28;20079;-72
2023/06/15 09:20:36;;;;;;;6.13;3.30;;;;;;;31.03;39.67;101886.41;5204151;28;20025;-72
2023/06/15 09:23:12;;;;;;;8.55;3.17;;;;;;;31.17;38.35;101883.88;5204380;28;20033;-72
2023/06/15 09:25:51;;;;;;;10.15;3.50;;;;;;;31.36;38.18;101890.53;5203269;28;20025;-72
2023/06/15 09:28:26;;;;;;;5.90;2.70;;;;;;;31.36;36.95;101890.53;5204159;28;20132;-72
2023/06/15 09:30:56;;;;;;;4.60;3.05;;;;;;;31.26;37.61;101887.78;5204403;28;20552;-72
2023/06/15 09:33:29;;;;;;;4.78;3.00;;;;;;;31.29;37.34;101881.69;5204216;28;20130;-72
2023/06/15 09:36:17;;;;;;;4.75;2.47;;;;;;;31.26;37.42;101887.78;5203740;28;20021;-72
2023/06/15 09:38:53;;;;;;;7.20;3.38;;;;;;;31.34;42.22;101886.41;5203768;28;20033;-72
2023/06/15 09:41:23;;;;;;;10.63;3.13;;;;;;;31.20;35.53;101880.56;5204222;28;20399;-72
2023/06/15 09:43:54;;;;;;;6.85;3.17;;;;;;;31.40;38.37;101885.28;5203927;28;20071;-72
2023/06/15 09:46:28;;;;;;;6.60;2.97;;;;;;;31.58;36.11;101884.66;5203347;28;20033;-72
2023/06/15 09:48:58;;;;;;;14.30;3.78;;;;;;;31.45;37.59;101891.63;5203521;28;20021;-72
2023/06/15 09:51:33;;;;;;;7.82;3.35;;;;;;;31.23;33.85;101881.94;5203967;28;20163;-72
2023/06/15 09:54:05;;;;;;;5.50;3.03;;;;;;;30.93;38.02;101883.66;5203947;28;20021;-72
2023/06/15 09:56:37;;;;;;;6.85;3.15;;;;;;;30.31;34.73;101884.69;5202994;28;20124;-72
2023/06/15 09:59:07;;;;;;;7.18;2.75;;;;;;;30.42;40.92;101883.59;5203356;28;20426;-72
2023/06/15 10:01:38;;;;;;;10.05;3.33;;;;;;;30.54;36.57;101884.16;5203700;28;20082;-72
2023/06/15 10:04:09;;;;;;;10.07;2.90;;;;;;;30.75;36.74;101884.22;5203357;28;20068;-72
2023/06/15 10:06:43;;;;;;;11.77;4.07;;;;;;;30.94;34.70;101886.16;5203143;28;20021;-72
2023/06/15 10:09:21;;;;;;;7.25;3.42;;;;;;;30.85;36.07;101878.66;5203589;28;20025;-72
2023/06/15 10:11:57;;;;;;;11.05;3.15;;;;;;;31.05;33.88;101875.88;5203591;28;20560;-72
2023/06/15 10:14:37;;;;;;;8.30;3.38;;;;;;;31.04;34.22;101877.00;5203337;28;20032;-72
2023/06/15 10:17:10;;;;;;;7.57;3.22;;;;;;;31.09;33.71;101874.22;5202733;28;20429;-72
2023/06/15 10:19:43;;;;;;;7.38;3.42;;;;;;;30.97;32.68;101876.44;5203233;28;20514;-72
2023/06/15 10:22:17;;;;;;;6.25;3.70;;;;;;;30.95;32.65;101873.94;5203001;28;20033;-72
2023/06/15 10:24:48;;;;;;;6.60;3.13;;;;;;;30.92;32.73;101881.97;5203437;28;20505;-72
2023/06/15 10:27:19;;;;;;;9.93;3.00;;;;;;;31.11;37.34;101877.53;5202780;28;20548;-72
2023/06/15 10:30:10;;;;;;;6.07;3.10;;;;;;;30.94;33.20;101875.06;5203198;28;20047;-72
2023/06/15 10:33:05;;;;;;;6.93;3.30;;;;;;;30.67;35.16;101877.25;5203256;28;20478;-72
2023/06/15 10:35:57;;;;;;;9.40;2.97;;;;;;;30.99;34.22;101870.63;5202904;28;20033;-72
2023/06/15 10:38:51;;;;;;;6.60;2.95;;;;;;;31.19;35.09;101873.38;5202620;28;20511;-72
2023/06/15 10:41:22;;;;;;;5.88;3.63;;;;;;;31.33;34.71;101870.88;5202937;28;20079;-72
2023/06/15 10:44:00;;;;;;;4.97;3.10;;;;;;;31.38;32.59;101874.47;5202834;28;20112;-72
2023/06/15 10:46:33;;;;;;;3.92;2.92;;;;;;;31.29;32.45;101872.56;5199991;28;20368;-72
2023/06/15 10:49:04;;;;;;;7.10;3.03;;;;;;;31.04;31.50;101870.63;5207128;28;20451;-72
2023/06/15 10:51:39;;;;;;;6.45;2.97;;;;;;;30.95;29.91;101870.34;5202836;28;20056;-72
2023/06/15 10:54:23;;;;;;;5.78;3.05;;;;;;;30.60;30.96;101882.22;5203047;28;20511;-72
2023/06/15 10:56:55;;;;;;;7.75;3.20;;;;;;;29.82;31.71;101877.59;5202257;28;20104;-72
2023/06/15 10:59:38;;;;;;;6.50;2.92;;;;;;;29.40;32.24;101878.47;5202680;28;20033;-72
2023/06/15 11:02:26;;;;;;;8.07;3.20;;;;;;;29.37;33.89;101873.50;5202780;28;20403;-72
2023/06/15 11:05:17;;;;;;;7.80;2.65;;;;;;;29.62;30.76;101874.72;5202576;28;20018;-71
2023/06/15 11:07:50;;;;;;;7.60;3.60;;;;;;;29.84;32.30;101875.38;5201894;28;20038;-72
2023/06/15 11:10:27;;;;;;;8.25;3.40;;;;;;;29.98;31.61;101878.50;5202701;28;20502;-72
2023/06/15 11:13:23;;;;;;;7.47;3.38;;;;;;;30.20;35.12;101874.69;5201556;28;20399;-72
2023/06/15 11:16:10;;;;;;;5.15;3.30;;;;;;;30.30;34.60;101874.72;5193283;28;20022;-72
2023/06/15 11:18:56;;;;;;;9.20;3.30;;;;;;;30.58;31.47;101871.44;5215261;28;20041;-72
2023/06/15 11:21:29;;;;;;;10.40;3.22;;;;;;;30.93;33.32;101869.81;5205822;28;20104;-72
2023/06/15 11:23:59;;;;;;;4.90;2.97;;;;;;;30.46;31.87;101867.25;5205148;28;20032;-72
2023/06/15 11:26:31;;;;;;;7.53;3.00;;;;;;;30.36;34.53;101862.53;5204407;28;20022;-72
2023/06/15 11:29:03;;;;;;;5.80;3.22;;;;;;;30.49;32.28;101863.97;5205768;28;20433;-72
2023/06/15 11:31:33;;;;;;;5.53;2.90;;;;;;;30.85;35.18;101850.97;5205300;28;20044;-72
2023/06/15 11:34:04;;;;;;;12.65;3.13;;;;;;;30.51;33.17;101853.44;5205387;28;20025;-72
2023/06/15 11:36:36;;;;;;;5.95;3.47;;;;;;;30.64;33.51;101856.47;5204541;28;20021;-72
2023/06/15 11:39:16;;;;;;;5.20;3.13;;;;;;;30.74;29.92;101849.31;5204836;28;20033;-72
2023/06/15 11:41:49;;;;;;;5.60;3.53;;;;;;;30.65;31.26;101849.00;5211049;28;20699;-72
2023/06/15 11:44:21;;;;;;;7.57;3.63;;;;;;;30.15;30.04;101858.91;5211644;28;20022;-71